sensor_id;sensor_type;location;lat;lon;timestamp;P1;durP1;ratioP1;P2;durP2;ratioP2
19167;SDS011;9716;53.114;18.040;2023-04-02T00:08:00;8.67;;;5.10;;
19167;SDS011;9716;53.114;18.040;2023-04-02T00:10:36;9.23;;;4.33;;
19167;SDS011;9716;53.114;18.040;2023-04-02T00:13:16;7.47;;;4.07;;
19167;SDS011;9716;53.114;18.040;2023-04-02T00:15:53;8.53;;;3.67;;
19167;SDS011;9716;53.114;18.040;2023-04-02T00:18:24;6.60;;;4.60;;
19167;SDS011;9716;53.114;18.040;2023-04-02T00:20:54;7.17;;;4.50;;
19167;SDS011;9716;53.114;18.040;2023-04-02T00:23:30;9.37;;;3.90;;
19167;SDS011;9716;53.114;18.040;2023-04-02T00:25:58;5.95;;;3.55;;
19167;SDS011;9716;53.114;18.040;2023-04-02T00:28:27;7.07;;;3.93;;
19167;SDS011;9716;53.114;18.040;2023-04-02T00:30:57;6.53;;;3.33;;
19167;SDS011;9716;53.114;18.040;2023-04-02T00:33:27;8.70;;;3.23;;
19167;SDS011;9716;53.114;18.040;2023-04-02T00:35:58;2.67;;;2.33;;
19167;SDS011;9716;53.114;18.040;2023-04-02T00:38:28;9.30;;;3.07;;
19167;SDS011;9716;53.114;18.040;2023-04-02T00:41:00;7.37;;;3.77;;
19167;SDS011;9716;53.114;18.040;2023-04-02T00:43:31;6.83;;;3.90;;
19167;SDS011;9716;53.114;18.040;2023-04-02T00:46:06;4.63;;;3.20;;
19167;SDS011;9716;53.114;18.040;2023-04-02T00:48:42;4.60;;;2.97;;
19167;SDS011;9716;53.114;18.040;2023-04-02T00:51:16;6.53;;;3.57;;
19167;SDS011;9716;53.114;18.040;2023-04-02T00:53:51;4.32;;;3.20;;
19167;SDS011;9716;53.114;18.040;2023-04-02T00:56:22;4.03;;;2.55;;
19167;SDS011;9716;53.114;18.040;2023-04-02T00:58:55;7.15;;;2.92;;
19167;SDS011;9716;53.114;18.040;2023-04-02T01:01:26;5.60;;;2.67;;
19167;SDS011;9716;53.114;18.040;2023-04-02T01:04:00;7.00;;;2.85;;
19167;SDS011;9716;53.114;18.040;2023-04-02T01:06:30;3.27;;;2.20;;
19167;SDS011;9716;53.114;18.040;2023-04-02T01:09:10;4.82;;;2.53;;
19167;SDS011;9716;53.114;18.040;2023-04-02T01:11:54;3.87;;;2.70;;
19167;SDS011;9716;53.114;18.040;2023-04-02T01:14:42;2.97;;;2.30;;
19167;SDS011;9716;53.114;18.040;2023-04-02T01:17:22;4.73;;;2.80;;
19167;SDS011;9716;53.114;18.040;2023-04-02T01:20:08;3.53;;;2.55;;
19167;SDS011;9716;53.114;18.040;2023-04-02T01:22:51;4.28;;;2.38;;
19167;SDS011;9716;53.114;18.040;2023-04-02T01:25:25;6.25;;;2.95;;
19167;SDS011;9716;53.114;18.040;2023-04-02T01:28:02;3.17;;;2.23;;
19167;SDS011;9716;53.114;18.040;2023-04-02T01:30:37;4.88;;;2.60;;
19167;SDS011;9716;53.114;18.040;2023-04-02T01:33:06;2.97;;;2.43;;
19167;SDS011;9716;53.114;18.040;2023-04-02T01:35:36;3.57;;;2.37;;
19167;SDS011;9716;53.114;18.040;2023-04-02T01:38:08;3.30;;;2.33;;
19167;SDS011;9716;53.114;18.040;2023-04-02T01:40:42;3.90;;;2.38;;
19167;SDS011;9716;53.114;18.040;2023-04-02T01:43:18;4.25;;;2.45;;
19167;SDS011;9716;53.114;18.040;2023-04-02T01:45:54;3.47;;;2.10;;
19167;SDS011;9716;53.114;18.040;2023-04-02T01:48:24;5.83;;;2.53;;
19167;SDS011;9716;53.114;18.040;2023-04-02T01:50:58;4.07;;;2.70;;
19167;SDS011;9716;53.114;18.040;2023-04-02T01:53:30;2.73;;;2.40;;
19167;SDS011;9716;53.114;18.040;2023-04-02T01:56:00;3.13;;;1.97;;
19167;SDS011;9716;53.114;18.040;2023-04-02T01:58:30;4.30;;;2.80;;
19167;SDS011;9716;53.114;18.040;2023-04-02T02:01:02;4.28;;;2.60;;
19167;SDS011;9716;53.114;18.040;2023-04-02T02:03:32;3.50;;;2.33;;
19167;SDS011;9716;53.114;18.040;2023-04-02T02:06:02;4.60;;;2.93;;
19167;SDS011;9716;53.114;18.040;2023-04-02T02:08:36;4.03;;;2.30;;
19167;SDS011;9716;53.114;18.040;2023-04-02T02:11:07;4.32;;;2.20;;
19167;SDS011;9716;53.114;18.040;2023-04-02T02:13:44;4.33;;;2.77;;
19167;SDS011;9716;53.114;18.040;2023-04-02T02:16:15;5.83;;;2.77;;
19167;SDS011;9716;53.114;18.040;2023-04-02T02:18:45;6.97;;;2.93;;
19167;SDS011;9716;53.114;18.040;2023-04-02T02:21:17;2.60;;;2.27;;
19167;SDS011;9716;53.114;18.040;2023-04-02T02:23:53;6.27;;;2.07;;
19167;SDS011;9716;53.114;18.040;2023-04-02T02:26:23;2.83;;;2.10;;
19167;SDS011;9716;53.114;18.040;2023-04-02T02:28:54;4.28;;;1.88;;
19167;SDS011;9716;53.114;18.040;2023-04-02T02:31:26;4.87;;;2.20;;
19167;SDS011;9716;53.114;18.040;2023-04-02T02:33:59;3.28;;;1.65;;
19167;SDS011;9716;53.114;18.040;2023-04-02T02:36:32;2.53;;;1.80;;
19167;SDS011;9716;53.114;18.040;2023-04-02T02:39:09;4.45;;;2.40;;
19167;SDS011;9716;53.114;18.040;2023-04-02T02:41:44;5.35;;;1.73;;
19167;SDS011;9716;53.114;18.040;2023-04-02T02:44:16;3.45;;;1.98;;
19167;SDS011;9716;53.114;18.040;2023-04-02T02:46:50;2.47;;;1.40;;
19167;SDS011;9716;53.114;18.040;2023-04-02T02:49:22;6.93;;;1.70;;
19167;SDS011;9716;53.114;18.040;2023-04-02T02:51:56;3.50;;;1.80;;
19167;SDS011;9716;53.114;18.040;2023-04-02T02:54:27;2.03;;;1.53;;
19167;SDS011;9716;53.114;18.040;2023-04-02T02:56:58;3.10;;;1.70;;
19167;SDS011;9716;53.114;18.040;2023-04-02T02:59:29;3.13;;;1.70;;
19167;SDS011;9716;53.114;18.040;2023-04-02T03:02:00;2.80;;;1.53;;
19167;SDS011;9716;53.114;18.040;2023-04-02T03:04:31;8.70;;;1.93;;
19167;SDS011;9716;53.114;18.040;2023-04-02T03:07:01;2.30;;;1.67;;
19167;SDS011;9716;53.114;18.040;2023-04-02T03:09:35;2.00;;;1.50;;
19167;SDS011;9716;53.114;18.040;2023-04-02T03:12:12;2.37;;;1.90;;
19167;SDS011;9716;53.114;18.040;2023-04-02T03:14:56;1.83;;;1.50;;
19167;SDS011;9716;53.114;18.040;2023-04-02T03:17:31;4.20;;;2.03;;
19167;SDS011;9716;53.114;18.040;2023-04-02T03:20:03;2.53;;;1.77;;
19167;SDS011;9716;53.114;18.040;2023-04-02T03:22:43;1.63;;;1.50;;
19167;SDS011;9716;53.114;18.040;2023-04-02T03:25:20;3.80;;;1.73;;
19167;SDS011;9716;53.114;18.040;2023-04-02T03:27:54;1.95;;;1.42;;
19167;SDS011;9716;53.114;18.040;2023-04-02T03:30:29;2.00;;;1.60;;
19167;SDS011;9716;53.114;18.040;2023-04-02T03:33:03;2.10;;;1.53;;
19167;SDS011;9716;53.114;18.040;2023-04-02T03:35:37;2.28;;;1.67;;
19167;SDS011;9716;53.114;18.040;2023-04-02T03:38:11;1.50;;;1.33;;
19167;SDS011;9716;53.114;18.040;2023-04-02T03:40:42;3.93;;;1.50;;
19167;SDS011;9716;53.114;18.040;2023-04-02T03:43:20;2.87;;;1.67;;
19167;SDS011;9716;53.114;18.040;2023-04-02T03:45:52;5.60;;;1.77;;
19167;SDS011;9716;53.114;18.040;2023-04-02T03:48:27;2.00;;;1.50;;
19167;SDS011;9716;53.114;18.040;2023-04-02T03:51:02;3.53;;;1.67;;
19167;SDS011;9716;53.114;18.040;2023-04-02T03:53:33;1.93;;;1.40;;
19167;SDS011;9716;53.114;18.040;2023-04-02T03:56:02;3.00;;;1.97;;
19167;SDS011;9716;53.114;18.040;2023-04-02T03:58:33;2.10;;;1.30;;
19167;SDS011;9716;53.114;18.040;2023-04-02T04:01:08;2.50;;;1.50;;
19167;SDS011;9716;53.114;18.040;2023-04-02T04:03:46;2.77;;;1.40;;
19167;SDS011;9716;53.114;18.040;2023-04-02T04:06:19;6.07;;;1.73;;
19167;SDS011;9716;53.114;18.040;2023-04-02T04:08:52;1.70;;;1.33;;
19167;SDS011;9716;53.114;18.040;2023-04-02T04:11:31;4.27;;;2.00;;
19167;SDS011;9716;53.114;18.040;2023-04-02T04:14:02;7.73;;;1.57;;
19167;SDS011;9716;53.114;18.040;2023-04-02T04:16:38;2.57;;;1.67;;
19167;SDS011;9716;53.114;18.040;2023-04-02T04:19:15;2.03;;;1.40;;
19167;SDS011;9716;53.114;18.040;2023-04-02T04:21:47;1.50;;;1.40;;
19167;SDS011;9716;53.114;18.040;2023-04-02T04:24:21;4.23;;;1.83;;
19167;SDS011;9716;53.114;18.040;2023-04-02T04:26:51;9.10;;;1.53;;
19167;SDS011;9716;53.114;18.040;2023-04-02T04:29:26;1.50;;;1.40;;
19167;SDS011;9716;53.114;18.040;2023-04-02T04:32:18;2.57;;;1.37;;
19167;SDS011;9716;53.114;18.040;2023-04-02T04:35:00;2.03;;;1.80;;
19167;SDS011;9716;53.114;18.040;2023-04-02T04:37:34;3.53;;;1.90;;
19167;SDS011;9716;53.114;18.040;2023-04-02T04:40:09;3.43;;;1.63;;
19167;SDS011;9716;53.114;18.040;2023-04-02T04:42:43;2.23;;;1.53;;
19167;SDS011;9716;53.114;18.040;2023-04-02T04:45:16;4.10;;;1.60;;
19167;SDS011;9716;53.114;18.040;2023-04-02T04:48:01;4.10;;;1.73;;
19167;SDS011;9716;53.114;18.040;2023-04-02T04:50:34;2.90;;;1.77;;
19167;SDS011;9716;53.114;18.040;2023-04-02T04:53:11;4.83;;;1.67;;
19167;SDS011;9716;53.114;18.040;2023-04-02T04:55:43;2.87;;;1.83;;
19167;SDS011;9716;53.114;18.040;2023-04-02T04:58:17;1.80;;;1.53;;
19167;SDS011;9716;53.114;18.040;2023-04-02T05:00:54;1.50;;;1.30;;
19167;SDS011;9716;53.114;18.040;2023-04-02T05:03:29;1.73;;;1.50;;
19167;SDS011;9716;53.114;18.040;2023-04-02T05:06:04;1.83;;;1.70;;
19167;SDS011;9716;53.114;18.040;2023-04-02T05:08:38;5.30;;;1.93;;
19167;SDS011;9716;53.114;18.040;2023-04-02T05:11:12;3.00;;;1.97;;
19167;SDS011;9716;53.114;18.040;2023-04-02T05:13:47;2.70;;;1.20;;
19167;SDS011;9716;53.114;18.040;2023-04-02T05:16:21;2.93;;;1.63;;
19167;SDS011;9716;53.114;18.040;2023-04-02T05:18:55;1.73;;;1.57;;
19167;SDS011;9716;53.114;18.040;2023-04-02T05:21:31;6.53;;;1.50;;
19167;SDS011;9716;53.114;18.040;2023-04-02T05:24:26;1.57;;;1.27;;
19167;SDS011;9716;53.114;18.040;2023-04-02T05:27:01;3.27;;;1.67;;
19167;SDS011;9716;53.114;18.040;2023-04-02T05:29:36;1.93;;;1.17;;
19167;SDS011;9716;53.114;18.040;2023-04-02T05:32:09;1.30;;;1.20;;
19167;SDS011;9716;53.114;18.040;2023-04-02T05:34:44;1.83;;;1.20;;
19167;SDS011;9716;53.114;18.040;2023-04-02T05:37:19;1.80;;;1.20;;
19167;SDS011;9716;53.114;18.040;2023-04-02T05:39:49;5.33;;;1.40;;
19167;SDS011;9716;53.114;18.040;2023-04-02T05:42:22;1.80;;;1.23;;
19167;SDS011;9716;53.114;18.040;2023-04-02T05:45:00;2.20;;;1.53;;
19167;SDS011;9716;53.114;18.040;2023-04-02T05:47:35;1.17;;;1.03;;
19167;SDS011;9716;53.114;18.040;2023-04-02T05:50:16;1.83;;;1.20;;
19167;SDS011;9716;53.114;18.040;2023-04-02T05:52:52;2.03;;;1.60;;
19167;SDS011;9716;53.114;18.040;2023-04-02T05:55:31;1.50;;;1.20;;
19167;SDS011;9716;53.114;18.040;2023-04-02T05:58:06;1.93;;;1.47;;
19167;SDS011;9716;53.114;18.040;2023-04-02T06:01:03;2.50;;;1.93;;
19167;SDS011;9716;53.114;18.040;2023-04-02T06:03:40;2.10;;;1.37;;
19167;SDS011;9716;53.114;18.040;2023-04-02T06:06:14;1.53;;;1.20;;
19167;SDS011;9716;53.114;18.040;2023-04-02T06:08:50;3.23;;;1.30;;
19167;SDS011;9716;53.114;18.040;2023-04-02T06:11:24;4.20;;;1.53;;
19167;SDS011;9716;53.114;18.040;2023-04-02T06:13:57;3.67;;;1.60;;
19167;SDS011;9716;53.114;18.040;2023-04-02T06:16:26;1.83;;;1.40;;
19167;SDS011;9716;53.114;18.040;2023-04-02T06:18:57;12.80;;;5.07;;
19167;SDS011;9716;53.114;18.040;2023-04-02T06:21:26;6.03;;;2.57;;
19167;SDS011;9716;53.114;18.040;2023-04-02T06:23:57;9.53;;;2.60;;
19167;SDS011;9716;53.114;18.040;2023-04-02T06:26:30;7.57;;;3.33;;
19167;SDS011;9716;53.114;18.040;2023-04-02T06:29:03;9.40;;;3.67;;
19167;SDS011;9716;53.114;18.040;2023-04-02T06:31:35;8.10;;;4.03;;
19167;SDS011;9716;53.114;18.040;2023-04-02T06:34:06;5.30;;;3.40;;
19167;SDS011;9716;53.114;18.040;2023-04-02T06:36:41;6.43;;;3.20;;
19167;SDS011;9716;53.114;18.040;2023-04-02T06:39:16;5.70;;;3.23;;
19167;SDS011;9716;53.114;18.040;2023-04-02T06:41:52;5.17;;;2.87;;
19167;SDS011;9716;53.114;18.040;2023-04-02T06:44:24;5.97;;;3.93;;
19167;SDS011;9716;53.114;18.040;2023-04-02T06:46:56;6.00;;;3.27;;
19167;SDS011;9716;53.114;18.040;2023-04-02T06:49:28;4.43;;;2.33;;
19167;SDS011;9716;53.114;18.040;2023-04-02T06:52:00;4.50;;;2.63;;
19167;SDS011;9716;53.114;18.040;2023-04-02T06:54:32;6.27;;;3.43;;
19167;SDS011;9716;53.114;18.040;2023-04-02T06:57:00;3.17;;;2.33;;
19167;SDS011;9716;53.114;18.040;2023-04-02T06:59:31;14.80;;;3.30;;
19167;SDS011;9716;53.114;18.040;2023-04-02T07:02:00;3.50;;;2.03;;
19167;SDS011;9716;53.114;18.040;2023-04-02T07:04:32;6.53;;;2.40;;
19167;SDS011;9716;53.114;18.040;2023-04-02T07:07:01;12.50;;;3.63;;
19167;SDS011;9716;53.114;18.040;2023-04-02T07:09:29;6.37;;;3.23;;
19167;SDS011;9716;53.114;18.040;2023-04-02T07:11:59;5.60;;;2.60;;
19167;SDS011;9716;53.114;18.040;2023-04-02T07:14:28;5.47;;;2.67;;
19167;SDS011;9716;53.114;18.040;2023-04-02T07:16:56;6.70;;;2.97;;
19167;SDS011;9716;53.114;18.040;2023-04-02T07:19:25;4.43;;;2.33;;
19167;SDS011;9716;53.114;18.040;2023-04-02T07:21:53;5.63;;;2.20;;
19167;SDS011;9716;53.114;18.040;2023-04-02T07:24:22;8.30;;;2.17;;
19167;SDS011;9716;53.114;18.040;2023-04-02T07:26:50;5.60;;;2.27;;
19167;SDS011;9716;53.114;18.040;2023-04-02T07:29:20;9.23;;;3.10;;
19167;SDS011;9716;53.114;18.040;2023-04-02T07:31:48;7.20;;;3.53;;
19167;SDS011;9716;53.114;18.040;2023-04-02T07:34:18;10.23;;;3.70;;
19167;SDS011;9716;53.114;18.040;2023-04-02T07:36:47;11.70;;;5.00;;
19167;SDS011;9716;53.114;18.040;2023-04-02T07:39:15;12.38;;;4.57;;
19167;SDS011;9716;53.114;18.040;2023-04-02T07:41:51;8.27;;;3.20;;
19167;SDS011;9716;53.114;18.040;2023-04-02T07:44:21;7.15;;;2.95;;
19167;SDS011;9716;53.114;18.040;2023-04-02T07:46:50;6.07;;;2.63;;
19167;SDS011;9716;53.114;18.040;2023-04-02T07:49:18;4.40;;;2.17;;
19167;SDS011;9716;53.114;18.040;2023-04-02T07:51:47;3.03;;;1.93;;
19167;SDS011;9716;53.114;18.040;2023-04-02T07:54:16;3.90;;;2.30;;
19167;SDS011;9716;53.114;18.040;2023-04-02T07:56:44;5.63;;;2.43;;
19167;SDS011;9716;53.114;18.040;2023-04-02T07:59:12;10.03;;;2.40;;
19167;SDS011;9716;53.114;18.040;2023-04-02T08:01:42;2.33;;;1.55;;
19167;SDS011;9716;53.114;18.040;2023-04-02T08:04:14;1.33;;;1.15;;
19167;SDS011;9716;53.114;18.040;2023-04-02T08:06:45;3.20;;;1.85;;
19167;SDS011;9716;53.114;18.040;2023-04-02T08:09:14;3.27;;;1.47;;
19167;SDS011;9716;53.114;18.040;2023-04-02T08:11:43;5.88;;;1.98;;
19167;SDS011;9716;53.114;18.040;2023-04-02T08:14:12;1.77;;;1.33;;
19167;SDS011;9716;53.114;18.040;2023-04-02T08:16:46;2.35;;;1.67;;
19167;SDS011;9716;53.114;18.040;2023-04-02T08:19:16;3.90;;;1.47;;
19167;SDS011;9716;53.114;18.040;2023-04-02T08:21:44;2.20;;;1.30;;
19167;SDS011;9716;53.114;18.040;2023-04-02T08:24:16;3.10;;;1.73;;
19167;SDS011;9716;53.114;18.040;2023-04-02T08:26:45;2.50;;;1.50;;
19167;SDS011;9716;53.114;18.040;2023-04-02T08:29:14;3.22;;;1.83;;
19167;SDS011;9716;53.114;18.040;2023-04-02T08:31:42;6.03;;;2.17;;
19167;SDS011;9716;53.114;18.040;2023-04-02T08:34:12;4.63;;;1.93;;
19167;SDS011;9716;53.114;18.040;2023-04-02T08:36:42;4.47;;;1.77;;
19167;SDS011;9716;53.114;18.040;2023-04-02T08:39:12;4.57;;;2.20;;
19167;SDS011;9716;53.114;18.040;2023-04-02T08:41:42;6.07;;;2.22;;
19167;SDS011;9716;53.114;18.040;2023-04-02T08:44:21;3.22;;;1.63;;
19167;SDS011;9716;53.114;18.040;2023-04-02T08:47:02;3.53;;;1.25;;
19167;SDS011;9716;53.114;18.040;2023-04-02T08:49:37;2.38;;;1.30;;
19167;SDS011;9716;53.114;18.040;2023-04-02T08:52:12;5.47;;;1.77;;
19167;SDS011;9716;53.114;18.040;2023-04-02T08:54:47;2.70;;;1.50;;
19167;SDS011;9716;53.114;18.040;2023-04-02T08:57:18;6.40;;;2.00;;
19167;SDS011;9716;53.114;18.040;2023-04-02T08:59:54;1.67;;;1.42;;
19167;SDS011;9716;53.114;18.040;2023-04-02T09:02:28;2.33;;;1.45;;
19167;SDS011;9716;53.114;18.040;2023-04-02T09:05:06;1.75;;;1.42;;
19167;SDS011;9716;53.114;18.040;2023-04-02T09:07:44;3.85;;;1.65;;
19167;SDS011;9716;53.114;18.040;2023-04-02T09:10:14;4.13;;;1.67;;
19167;SDS011;9716;53.114;18.040;2023-04-02T09:12:45;1.60;;;1.38;;
19167;SDS011;9716;53.114;18.040;2023-04-02T09:15:21;2.50;;;1.25;;
19167;SDS011;9716;53.114;18.040;2023-04-02T09:17:55;1.60;;;1.20;;
19167;SDS011;9716;53.114;18.040;2023-04-02T09:20:28;6.45;;;1.60;;
19167;SDS011;9716;53.114;18.040;2023-04-02T09:22:57;2.75;;;1.35;;
19167;SDS011;9716;53.114;18.040;2023-04-02T09:25:26;2.30;;;1.27;;
19167;SDS011;9716;53.114;18.040;2023-04-02T09:27:57;3.65;;;1.67;;
19167;SDS011;9716;53.114;18.040;2023-04-02T09:30:32;5.05;;;1.50;;
19167;SDS011;9716;53.114;18.040;2023-04-02T09:33:08;1.88;;;1.38;;
19167;SDS011;9716;53.114;18.040;2023-04-02T09:35:52;3.33;;;1.42;;
19167;SDS011;9716;53.114;18.040;2023-04-02T09:38:24;1.30;;;1.10;;
19167;SDS011;9716;53.114;18.040;2023-04-02T09:40:57;2.42;;;1.45;;
19167;SDS011;9716;53.114;18.040;2023-04-02T09:43:28;5.97;;;1.20;;
19167;SDS011;9716;53.114;18.040;2023-04-02T09:45:59;2.95;;;1.50;;
19167;SDS011;9716;53.114;18.040;2023-04-02T09:48:30;3.30;;;1.70;;
19167;SDS011;9716;53.114;18.040;2023-04-02T09:51:05;7.50;;;2.35;;
19167;SDS011;9716;53.114;18.040;2023-04-02T09:53:39;2.17;;;1.83;;
19167;SDS011;9716;53.114;18.040;2023-04-02T09:56:10;2.50;;;1.55;;
19167;SDS011;9716;53.114;18.040;2023-04-02T09:58:42;2.92;;;1.65;;
19167;SDS011;9716;53.114;18.040;2023-04-02T10:01:23;1.15;;;1.02;;
19167;SDS011;9716;53.114;18.040;2023-04-02T10:03:55;2.20;;;1.52;;
19167;SDS011;9716;53.114;18.040;2023-04-02T10:06:27;7.35;;;1.70;;
19167;SDS011;9716;53.114;18.040;2023-04-02T10:08:57;1.52;;;1.20;;
19167;SDS011;9716;53.114;18.040;2023-04-02T10:11:45;6.50;;;1.48;;
19167;SDS011;9716;53.114;18.040;2023-04-02T10:14:15;2.88;;;1.60;;
19167;SDS011;9716;53.114;18.040;2023-04-02T10:16:48;2.47;;;1.27;;
19167;SDS011;9716;53.114;18.040;2023-04-02T10:19:21;2.58;;;1.52;;
19167;SDS011;9716;53.114;18.040;2023-04-02T10:21:57;3.20;;;1.55;;
19167;SDS011;9716;53.114;18.040;2023-04-02T10:24:29;2.42;;;1.65;;
19167;SDS011;9716;53.114;18.040;2023-04-02T10:27:04;3.15;;;1.75;;
19167;SDS011;9716;53.114;18.040;2023-04-02T10:32:36;8.68;;;2.17;;
19167;SDS011;9716;53.114;18.040;2023-04-02T10:35:11;7.38;;;1.50;;
19167;SDS011;9716;53.114;18.040;2023-04-02T10:37:50;4.40;;;1.65;;
19167;SDS011;9716;53.114;18.040;2023-04-02T10:40:33;2.88;;;1.73;;
19167;SDS011;9716;53.114;18.040;2023-04-02T10:43:17;2.50;;;1.45;;
19167;SDS011;9716;53.114;18.040;2023-04-02T10:46:12;2.67;;;1.70;;
19167;SDS011;9716;53.114;18.040;2023-04-02T10:48:50;1.92;;;1.55;;
19167;SDS011;9716;53.114;18.040;2023-04-02T10:51:28;6.55;;;1.77;;
19167;SDS011;9716;53.114;18.040;2023-04-02T10:54:05;3.60;;;1.80;;
19167;SDS011;9716;53.114;18.040;2023-04-02T10:56:53;3.95;;;1.25;;
19167;SDS011;9716;53.114;18.040;2023-04-02T10:59:28;3.83;;;1.42;;
19167;SDS011;9716;53.114;18.040;2023-04-02T11:02:01;2.15;;;1.63;;
19167;SDS011;9716;53.114;18.040;2023-04-02T11:04:40;5.25;;;1.48;;
19167;SDS011;9716;53.114;18.040;2023-04-02T11:07:12;4.25;;;1.63;;
19167;SDS011;9716;53.114;18.040;2023-04-02T11:09:47;7.63;;;2.13;;
19167;SDS011;9716;53.114;18.040;2023-04-02T11:12:19;3.13;;;1.55;;
19167;SDS011;9716;53.114;18.040;2023-04-02T11:14:51;1.75;;;1.38;;
19167;SDS011;9716;53.114;18.040;2023-04-02T11:17:22;1.75;;;1.42;;
19167;SDS011;9716;53.114;18.040;2023-04-02T11:19:51;1.70;;;1.40;;
19167;SDS011;9716;53.114;18.040;2023-04-02T11:22:20;2.60;;;1.40;;
19167;SDS011;9716;53.114;18.040;2023-04-02T11:24:51;3.20;;;1.83;;
19167;SDS011;9716;53.114;18.040;2023-04-02T11:27:24;6.85;;;2.53;;
19167;SDS011;9716;53.114;18.040;2023-04-02T11:29:59;2.58;;;2.03;;
19167;SDS011;9716;53.114;18.040;2023-04-02T11:32:44;2.38;;;1.23;;
19167;SDS011;9716;53.114;18.040;2023-04-02T11:35:26;5.15;;;2.20;;
19167;SDS011;9716;53.114;18.040;2023-04-02T11:41:08;2.95;;;1.63;;
19167;SDS011;9716;53.114;18.040;2023-04-02T11:43:58;8.48;;;1.80;;
19167;SDS011;9716;53.114;18.040;2023-04-02T11:46:43;2.63;;;1.70;;
19167;SDS011;9716;53.114;18.040;2023-04-02T11:52:24;2.17;;;1.83;;
19167;SDS011;9716;53.114;18.040;2023-04-02T11:54:56;2.53;;;1.50;;
19167;SDS011;9716;53.114;18.040;2023-04-02T11:57:35;2.63;;;1.27;;
19167;SDS011;9716;53.114;18.040;2023-04-02T12:00:17;5.35;;;1.63;;
19167;SDS011;9716;53.114;18.040;2023-04-02T12:03:10;4.03;;;1.80;;
19167;SDS011;9716;53.114;18.040;2023-04-02T12:06:03;2.53;;;1.38;;
19167;SDS011;9716;53.114;18.040;2023-04-02T12:08:41;4.32;;;1.45;;
19167;SDS011;9716;53.114;18.040;2023-04-02T12:11:30;1.58;;;1.48;;
19167;SDS011;9716;53.114;18.040;2023-04-02T12:14:05;1.42;;;1.10;;
19167;SDS011;9716;53.114;18.040;2023-04-02T12:16:54;5.47;;;1.40;;
19167;SDS011;9716;53.114;18.040;2023-04-02T12:19:23;1.48;;;0.90;;
19167;SDS011;9716;53.114;18.040;2023-04-02T12:21:52;2.22;;;1.30;;
19167;SDS011;9716;53.114;18.040;2023-04-02T12:24:22;2.47;;;1.45;;
19167;SDS011;9716;53.114;18.040;2023-04-02T12:27:06;1.45;;;1.13;;
19167;SDS011;9716;53.114;18.040;2023-04-02T12:29:42;1.48;;;1.13;;
19167;SDS011;9716;53.114;18.040;2023-04-02T12:32:16;5.70;;;1.38;;
19167;SDS011;9716;53.114;18.040;2023-04-02T12:34:48;6.32;;;1.70;;
19167;SDS011;9716;53.114;18.040;2023-04-02T12:37:19;1.50;;;1.25;;
19167;SDS011;9716;53.114;18.040;2023-04-02T12:39:51;3.95;;;1.60;;
19167;SDS011;9716;53.114;18.040;2023-04-02T12:42:27;5.43;;;1.92;;
19167;SDS011;9716;53.114;18.040;2023-04-02T12:44:59;2.03;;;1.35;;
19167;SDS011;9716;53.114;18.040;2023-04-02T12:47:30;4.57;;;1.90;;
19167;SDS011;9716;53.114;18.040;2023-04-02T12:49:59;1.73;;;1.05;;
19167;SDS011;9716;53.114;18.040;2023-04-02T12:52:28;1.95;;;1.00;;
19167;SDS011;9716;53.114;18.040;2023-04-02T12:54:58;1.23;;;1.13;;
19167;SDS011;9716;53.114;18.040;2023-04-02T13:00:28;4.18;;;1.10;;
19167;SDS011;9716;53.114;18.040;2023-04-02T13:03:15;4.35;;;1.63;;
19167;SDS011;9716;53.114;18.040;2023-04-02T13:05:47;2.70;;;1.30;;
19167;SDS011;9716;53.114;18.040;2023-04-02T13:08:21;1.38;;;1.10;;
19167;SDS011;9716;53.114;18.040;2023-04-02T13:10:54;3.55;;;1.73;;
19167;SDS011;9716;53.114;18.040;2023-04-02T13:13:26;2.75;;;1.50;;
19167;SDS011;9716;53.114;18.040;2023-04-02T13:16:02;1.55;;;1.45;;
19167;SDS011;9716;53.114;18.040;2023-04-02T13:18:49;2.88;;;1.20;;
19167;SDS011;9716;53.114;18.040;2023-04-02T13:21:24;2.83;;;1.40;;
19167;SDS011;9716;53.114;18.040;2023-04-02T13:23:54;2.20;;;1.17;;
19167;SDS011;9716;53.114;18.040;2023-04-02T13:26:23;2.28;;;1.10;;
19167;SDS011;9716;53.114;18.040;2023-04-02T13:28:57;3.88;;;1.58;;
19167;SDS011;9716;53.114;18.040;2023-04-02T13:31:29;2.88;;;1.42;;
19167;SDS011;9716;53.114;18.040;2023-04-02T13:33:59;2.20;;;1.30;;
19167;SDS011;9716;53.114;18.040;2023-04-02T13:36:28;1.85;;;1.45;;
19167;SDS011;9716;53.114;18.040;2023-04-02T13:38:56;1.10;;;1.00;;
19167;SDS011;9716;53.114;18.040;2023-04-02T13:41:25;1.42;;;1.20;;
19167;SDS011;9716;53.114;18.040;2023-04-02T13:43:56;1.42;;;1.20;;
19167;SDS011;9716;53.114;18.040;2023-04-02T13:46:29;2.10;;;0.95;;
19167;SDS011;9716;53.114;18.040;2023-04-02T13:48:59;1.88;;;1.20;;
19167;SDS011;9716;53.114;18.040;2023-04-02T13:51:31;2.03;;;0.98;;
19167;SDS011;9716;53.114;18.040;2023-04-02T13:54:03;5.22;;;1.20;;
19167;SDS011;9716;53.114;18.040;2023-04-02T13:56:36;0.70;;;0.70;;
19167;SDS011;9716;53.114;18.040;2023-04-02T13:59:04;3.78;;;1.30;;
19167;SDS011;9716;53.114;18.040;2023-04-02T14:01:34;1.77;;;1.05;;
19167;SDS011;9716;53.114;18.040;2023-04-02T14:04:04;3.80;;;1.65;;
19167;SDS011;9716;53.114;18.040;2023-04-02T14:06:38;1.33;;;1.10;;
19167;SDS011;9716;53.114;18.040;2023-04-02T14:09:19;1.08;;;0.98;;
19167;SDS011;9716;53.114;18.040;2023-04-02T14:11:57;1.77;;;1.23;;
19167;SDS011;9716;53.114;18.040;2023-04-02T14:14:37;1.13;;;1.00;;
19167;SDS011;9716;53.114;18.040;2023-04-02T14:17:26;1.85;;;1.05;;
19167;SDS011;9716;53.114;18.040;2023-04-02T14:20:05;1.83;;;1.13;;
19167;SDS011;9716;53.114;18.040;2023-04-02T14:22:47;1.77;;;1.67;;
19167;SDS011;9716;53.114;18.040;2023-04-02T14:25:29;5.18;;;2.35;;
19167;SDS011;9716;53.114;18.040;2023-04-02T14:28:04;5.82;;;2.65;;
19167;SDS011;9716;53.114;18.040;2023-04-02T14:30:44;25.27;;;9.15;;
19167;SDS011;9716;53.114;18.040;2023-04-02T14:33:22;11.30;;;6.35;;
19167;SDS011;9716;53.114;18.040;2023-04-02T14:36:05;3.78;;;2.90;;
19167;SDS011;9716;53.114;18.040;2023-04-02T14:38:40;8.40;;;3.20;;
19167;SDS011;9716;53.114;18.040;2023-04-02T14:41:17;7.70;;;4.45;;
19167;SDS011;9716;53.114;18.040;2023-04-02T14:43:50;10.20;;;4.73;;
19167;SDS011;9716;53.114;18.040;2023-04-02T14:46:23;30.58;;;11.95;;
19167;SDS011;9716;53.114;18.040;2023-04-02T14:48:56;26.65;;;10.35;;
19167;SDS011;9716;53.114;18.040;2023-04-02T14:51:29;52.00;;;19.35;;
19167;SDS011;9716;53.114;18.040;2023-04-02T14:54:05;71.93;;;22.98;;
19167;SDS011;9716;53.114;18.040;2023-04-02T14:56:38;39.42;;;12.30;;
19167;SDS011;9716;53.114;18.040;2023-04-02T14:59:18;12.30;;;6.10;;
19167;SDS011;9716;53.114;18.040;2023-04-02T15:01:52;31.80;;;14.10;;
19167;SDS011;9716;53.114;18.040;2023-04-02T15:04:26;31.48;;;11.10;;
19167;SDS011;9716;53.114;18.040;2023-04-02T15:07:02;32.45;;;12.70;;
19167;SDS011;9716;53.114;18.040;2023-04-02T15:09:34;15.18;;;6.88;;
19167;SDS011;9716;53.114;18.040;2023-04-02T15:12:08;8.75;;;4.60;;
19167;SDS011;9716;53.114;18.040;2023-04-02T15:14:43;9.68;;;4.35;;
19167;SDS011;9716;53.114;18.040;2023-04-02T15:17:14;3.17;;;2.55;;
19167;SDS011;9716;53.114;18.040;2023-04-02T15:19:44;6.88;;;2.75;;
19167;SDS011;9716;53.114;18.040;2023-04-02T15:22:19;6.10;;;2.97;;
19167;SDS011;9716;53.114;18.040;2023-04-02T15:24:59;8.32;;;4.35;;
19167;SDS011;9716;53.114;18.040;2023-04-02T15:27:50;8.77;;;5.25;;
19167;SDS011;9716;53.114;18.040;2023-04-02T15:30:34;7.32;;;3.67;;
19167;SDS011;9716;53.114;18.040;2023-04-02T15:36:13;3.13;;;2.10;;
19167;SDS011;9716;53.114;18.040;2023-04-02T15:38:53;4.07;;;2.42;;
19167;SDS011;9716;53.114;18.040;2023-04-02T15:41:29;3.22;;;2.40;;
19167;SDS011;9716;53.114;18.040;2023-04-02T15:44:02;4.20;;;1.85;;
19167;SDS011;9716;53.114;18.040;2023-04-02T15:46:37;2.00;;;1.63;;
19167;SDS011;9716;53.114;18.040;2023-04-02T15:49:20;5.03;;;3.10;;